Time;durP1;ratioP1;P1;durP2;ratioP2;P2;SDS_P1;SDS_P2;PMS_P1;PMS_P2;Temp;Humidity;BMP_temperature;BMP_pressure;BME280_temperature;BME280_humidity;BME280_pressure;Samples;Min_cycle;Max_cycle;Signal;HPM_P1;HPM_P2
2022/01/07 00:00:39;;;;;;;;;;;;;;;-0.17;nan;100903.38;5031817;28;19921;-84
2022/01/07 00:03:05;;;;;;;;;;;;;;;-0.08;nan;100895.97;5015565;28;20309;-84
2022/01/07 00:05:30;;;;;;;;;;;;;;;-0.05;nan;100898.44;5030227;28;20019;-83
2022/01/07 00:07:55;;;;;;;;;;;;;;;-0.02;nan;100893.06;5036071;28;19980;-84
2022/01/07 00:10:21;;;;;;;;;;;;;;;-0.01;nan;100888.72;5024227;28;19921;-86
2022/01/07 00:12:46;;;;;;;;;;;;;;;0.02;nan;100888.56;5035442;28;19924;-84
2022/01/07 00:15:12;;;;;;;;;;;;;;;0.08;nan;100887.44;5036192;28;19981;-87
2022/01/07 00:17:37;;;;;;;;;;;;;;;0.13;nan;100890.63;5034332;28;19921;-84
2022/01/07 00:20:08;;;;;;;;;;;;;;;0.16;nan;100880.06;5034088;28;20406;-84
2022/01/07 00:22:34;;;;;;;;;;;;;;;0.11;nan;100889.88;5023523;28;19928;-86
2022/01/07 00:24:59;;;;;;;;;;;;;;;0.12;nan;100878.53;5016555;28;19917;-84
2022/01/07 00:27:24;;;;;;;;;;;;;;;0.21;nan;100875.47;5026350;28;19936;-85
2022/01/07 00:29:50;;;;;;;;;;;;;;;0.31;nan;100875.84;5036369;28;19972;-84
2022/01/07 00:32:15;;;;;;;;;;;;;;;0.33;nan;100876.63;5034732;28;19924;-85
2022/01/07 00:34:40;;;;;;;;;;;;;;;0.38;nan;100874.63;5035276;28;19921;-85
2022/01/07 00:37:05;;;;;;;;;;;;;;;0.36;nan;100879.09;5036322;28;19928;-85
2022/01/07 00:39:30;;;;;;;;;;;;;;;0.19;nan;100878.19;5036841;28;19923;-84
2022/01/07 00:41:56;;;;;;;;;;;;;;;0.10;nan;100875.19;5037974;28;19917;-85
2022/01/07 00:44:21;;;;;;;;;;;;;;;0.02;nan;100877.31;5040610;28;19929;-85
2022/01/07 00:46:46;;;;;;;;;;;;;;;0.09;nan;100881.28;5040915;28;19931;-84
2022/01/07 00:49:12;;;;;;;;;;;;;;;0.17;nan;100877.41;5040054;28;19976;-85
2022/01/07 00:51:37;;;;;;;;;;;;;;;0.31;nan;100874.13;5041993;28;19928;-84
2022/01/07 00:54:02;;;;;;;;;;;;;;;0.37;nan;100878.16;5042517;28;20009;-84
2022/01/07 00:56:28;;;;;;;;;;;;;;;0.43;nan;100875.25;5036729;28;20357;-85
2022/01/07 00:58:53;;;;;;;;;;;;;;;0.47;nan;100866.34;5040776;28;19918;-85
2022/01/07 01:01:18;;;;;;;;;;;;;;;0.52;nan;100863.53;5034454;28;19921;-84
2022/01/07 01:03:43;;;;;;;;;;;;;;;0.54;nan;100857.31;5033431;28;19917;-85
2022/01/07 01:06:09;;;;;;;;;;;;;;;0.58;nan;100864.06;5036093;28;19976;-84
2022/01/07 01:08:34;;;;;;;;;;;;;;;0.62;nan;100862.13;5038345;28;20126;-84
2022/01/07 01:10:59;;;;;;;;;;;;;;;0.66;nan;100862.81;5031795;28;19922;-84
2022/01/07 01:13:24;;;;;;;;;;;;;;;0.67;nan;100862.75;5019595;28;19963;-85
2022/01/07 01:15:50;;;;;;;;;;;;;;;0.74;nan;100860.63;5037150;28;19925;-84
2022/01/07 01:18:15;;;;;;;;;;;;;;;0.75;nan;100860.56;5022467;28;20379;-85
2022/01/07 01:20:40;;;;;;;;;;;;;;;0.81;nan;100857.66;5033896;28;20394;-85
2022/01/07 01:23:06;;;;;;;;;;;;;;;0.87;nan;100866.06;5038506;28;19917;-85
2022/01/07 01:25:31;;;;;;;;;;;;;;;0.86;nan;100865.22;5035596;28;19965;-85
2022/01/07 01:27:56;;;;;;;;;;;;;;;0.87;nan;100864.28;5020939;28;19921;-84
2022/01/07 01:30:26;;;;;;;;;;;;;;;0.95;nan;100872.50;5039699;28;19983;-85
2022/01/07 01:32:52;;;;;;;;;;;;;;;0.98;nan;100863.72;5040195;28;19925;-84
2022/01/07 01:35:18;;;;;;;;;;;;;;;1.00;nan;100857.50;5037794;28;19961;-85
2022/01/07 01:37:44;;;;;;;;;;;;;;;0.94;nan;100867.41;5025944;28;19918;-84
2022/01/07 01:40:09;;;;;;;;;;;;;;;1.00;nan;100870.53;5025164;28;19922;-85
2022/01/07 01:42:35;;;;;;;;;;;;;;;1.02;nan;100860.00;5023934;28;19925;-85
2022/01/07 01:45:01;;;;;;;;;;;;;;;1.02;nan;100858.25;5035660;28;19921;-86
2022/01/07 01:47:26;;;;;;;;;;;;;;;0.97;nan;100851.63;5034912;28;19981;-86
2022/01/07 01:49:51;;;;;;;;;;;;;;;0.96;nan;100850.78;5020225;28;21374;-86
2022/01/07 01:52:16;;;;;;;;;;;;;;;0.94;nan;100852.63;5032054;28;19928;-86
2022/01/07 01:54:45;;;;;;;;;;;;;;;0.90;nan;100861.50;5036668;28;19921;-85
2022/01/07 01:57:11;;;;;;;;;;;;;;;0.92;nan;100851.84;5029808;28;19921;-85
2022/01/07 01:59:36;;;;;;;;;;;;;;;0.87;nan;100845.22;5036919;28;20287;-87
2022/01/07 02:02:02;;;;;;;;;;;;;;;0.83;nan;100845.41;5036960;28;19945;-86
2022/01/07 02:04:28;;;;;;;;;;;;;;;0.82;nan;100850.69;5036615;28;19922;-86
2022/01/07 02:06:53;;;;;;;;;;;;;;;0.81;nan;100848.97;5037151;28;20283;-86
2022/01/07 02:09:24;;;;;;;;;;;;;;;0.85;nan;100846.13;5034340;28;19921;-86
2022/01/07 02:11:50;;;;;;;;;;;;;;;0.85;nan;100837.50;5032982;28;20197;-86
2022/01/07 02:14:15;;;;;;;;;;;;;;;0.80;nan;100831.69;5034158;28;20004;-86
2022/01/07 02:16:40;;;;;;;;;;;;;;;0.81;nan;100823.81;5034304;28;20390;-86
2022/01/07 02:19:05;;;;;;;;;;;;;;;0.82;nan;100811.63;5037734;28;19917;-86
2022/01/07 02:21:35;;;;;;;;;;;;;;;0.82;nan;100812.47;5032110;28;19921;-86
2022/01/07 02:24:02;;;;;;;;;;;;;;;0.85;nan;100814.06;5029400;28;20377;-85
2022/01/07 02:26:28;;;;;;;;;;;;;;;0.85;nan;100814.06;5023767;28;20324;-86
2022/01/07 02:28:53;;;;;;;;;;;;;;;0.79;nan;100811.81;5038304;28;19944;-86
2022/01/07 02:31:19;;;;;;;;;;;;;;;0.81;nan;100809.94;5035387;28;20370;-86
2022/01/07 02:33:44;;;;;;;;;;;;;;;0.87;nan;100808.78;5034773;28;20319;-85
2022/01/07 02:36:10;;;;;;;;;;;;;;;0.81;nan;100802.13;5036682;28;19929;-86
2022/01/07 02:38:36;;;;;;;;;;;;;;;0.83;nan;100802.88;5035491;28;21012;-86
2022/01/07 02:41:02;;;;;;;;;;;;;;;0.87;nan;100795.75;5028965;28;19982;-85
2022/01/07 02:43:27;;;;;;;;;;;;;;;0.88;nan;100802.63;5028530;28;20395;-86
2022/01/07 02:45:52;;;;;;;;;;;;;;;0.88;nan;100795.66;5029181;28;19931;-86
2022/01/07 02:48:17;;;;;;;;;;;;;;;0.87;nan;100793.16;5038402;28;19923;-86
2022/01/07 02:50:42;;;;;;;;;;;;;;;0.78;nan;100784.91;5035576;28;20367;-86
2022/01/07 02:53:09;;;;;;;;;;;;;;;0.83;nan;100782.06;5031019;28;19922;-86
2022/01/07 02:55:34;;;;;;;;;;;;;;;0.79;nan;100775.38;5037436;28;19921;-85
2022/01/07 02:58:00;;;;;;;;;;;;;;;0.82;nan;100781.22;5035848;28;20294;-84
2022/01/07 03:00:26;;;;;;;;;;;;;;;0.87;nan;100775.78;5037278;28;19925;-85
2022/01/07 03:02:51;;;;;;;;;;;;;;;0.83;nan;100763.84;5032529;28;19969;-85
2022/01/07 03:05:17;;;;;;;;;;;;;;;0.85;nan;100762.00;5038389;28;19921;-85
2022/01/07 03:07:44;;;;;;;;;;;;;;;0.80;nan;100769.22;5048527;28;20366;-86
2022/01/07 03:10:10;;;;;;;;;;;;;;;0.79;nan;100767.56;5019474;28;19987;-86
2022/01/07 03:12:36;;;;;;;;;;;;;;;0.85;nan;100780.22;5034811;28;19967;-86
2022/01/07 03:15:03;;;;;;;;;;;;;;;0.92;nan;100778.97;5034192;28;19925;-86
2022/01/07 03:17:28;;;;;;;;;;;;;;;0.92;nan;100780.72;5028695;28;19921;-85
2022/01/07 03:19:54;;;;;;;;;;;;;;;0.94;nan;100777.13;5020690;28;19940;-85
2022/01/07 03:22:19;;;;;;;;;;;;;;;1.04;nan;100774.84;5033067;28;19925;-85
2022/01/07 03:24:44;;;;;;;;;;;;;;;1.09;nan;100772.00;5036719;28;19921;-86
2022/01/07 03:27:09;;;;;;;;;;;;;;;1.11;nan;100767.53;5030636;28;20018;-85
2022/01/07 03:29:34;;;;;;;;;;;;;;;1.10;nan;100760.63;5042399;28;19917;-86
2022/01/07 03:32:00;;;;;;;;;;;;;;;1.13;nan;100763.09;5029789;28;19927;-85
2022/01/07 03:34:25;;;;;;;;;;;;;;;1.11;nan;100754.53;5036102;28;19925;-86
2022/01/07 03:36:50;;;;;;;;;;;;;;;1.15;nan;100751.66;5035412;28;19928;-86
2022/01/07 03:39:16;;;;;;;;;;;;;;;1.14;nan;100742.16;5017175;28;19921;-86
2022/01/07 03:41:42;;;;;;;;;;;;;;;1.10;nan;100739.81;5029446;28;20469;-86
2022/01/07 03:44:07;;;;;;;;;;;;;;;1.10;nan;100745.88;5025066;28;19925;-86
2022/01/07 03:46:32;;;;;;;;;;;;;;;1.14;nan;100744.75;5017626;28;19959;-86
2022/01/07 03:48:57;;;;;;;;;;;;;;;1.18;nan;100745.44;5035384;28;19922;-86
2022/01/07 03:51:22;;;;;;;;;;;;;;;1.17;nan;100738.53;5036141;28;20299;-87
2022/01/07 03:53:48;;;;;;;;;;;;;;;1.18;nan;100742.84;5023519;28;20012;-85
2022/01/07 03:56:17;;;;;;;;;;;;;;;1.09;nan;100738.13;5002785;28;19963;-86
2022/01/07 03:58:43;;;;;;;;;;;;;;;1.11;nan;100734.53;5019341;28;20040;-86
2022/01/07 04:01:08;;;;;;;;;;;;;;;1.06;nan;100726.97;5026781;28;20402;-86
2022/01/07 04:03:34;;;;;;;;;;;;;;;1.06;nan;100726.13;5021501;28;20004;-86
2022/01/07 04:06:00;;;;;;;;;;;;;;;1.18;nan;100727.19;5005901;28;19922;-86
2022/01/07 04:08:25;;;;;;;;;;;;;;;1.10;nan;100730.25;4999805;28;19925;-88
2022/01/07 04:10:50;;;;;;;;;;;;;;;1.08;nan;100739.91;5006912;28;19925;-85
2022/01/07 04:13:15;;;;;;;;;;;;;;;1.03;nan;100747.13;5017100;28;20302;-85
2022/01/07 04:15:40;;;;;;;;;;;;;;;1.03;nan;100745.38;5011066;28;19956;-85
2022/01/07 04:18:06;;;;;;;;;;;;;;;1.01;nan;100739.41;5021027;28;19922;-86
2022/01/07 04:20:32;;;;;;;;;;;;;;;1.12;nan;100746.63;5018650;28;19925;-86
2022/01/07 04:22:57;;;;;;;;;;;;;;;0.99;nan;100749.06;5000527;28;20004;-86
2022/01/07 04:25:23;;;;;;;;;;;;;;;0.99;nan;100753.44;5000525;28;19960;-85
2022/01/07 04:27:50;;;;;;;;;;;;;;;0.90;nan;100751.34;4997375;28;19925;-86
2022/01/07 04:30:15;;;;;;;;;;;;;;;0.99;nan;100749.06;5001004;28;19922;-86
2022/01/07 04:32:42;;;;;;;;;;;;;;;0.96;nan;100751.84;5000978;28;20325;-86
2022/01/07 04:35:08;;;;;;;;;;;;;;;0.92;nan;100752.94;4999750;28;19922;-86
2022/01/07 04:37:33;;;;;;;;;;;;;;;0.89;nan;100758.31;5006039;28;20063;-88
2022/01/07 04:39:58;;;;;;;;;;;;;;;0.84;nan;100761.16;5004111;28;19929;-86
2022/01/07 04:42:23;;;;;;;;;;;;;;;0.79;nan;100762.34;5017918;28;20346;-85
2022/01/07 04:44:48;;;;;;;;;;;;;;;0.78;nan;100761.47;5016724;28;20276;-87
2022/01/07 04:47:14;;;;;;;;;;;;;;;0.80;nan;100756.19;5003881;28;19921;-86
2022/01/07 04:49:39;;;;;;;;;;;;;;;0.77;nan;100761.59;5001895;28;19922;-86
2022/01/07 04:52:05;;;;;;;;;;;;;;;0.76;nan;100754.69;5001352;28;19937;-86
2022/01/07 04:54:30;;;;;;;;;;;;;;;0.70;nan;100755.03;5017696;28;19981;-86
2022/01/07 04:56:56;;;;;;;;;;;;;;;0.74;nan;100765.19;4994880;28;20009;-85
2022/01/07 04:59:21;;;;;;;;;;;;;;;0.66;nan;100753.50;5010298;28;19956;-87
2022/01/07 05:01:47;;;;;;;;;;;;;;;0.62;nan;100750.22;5017096;28;20008;-86
2022/01/07 05:04:12;;;;;;;;;;;;;;;0.52;nan;100751.63;5005317;28;19976;-86
2022/01/07 05:06:44;;;;;;;;;;;;;;;0.50;nan;100749.13;4998808;28;19926;-86
2022/01/07 05:09:16;;;;;;;;;;;;;;;0.49;nan;100742.25;5021988;28;19925;-86
2022/01/07 05:11:41;;;;;;;;;;;;;;;0.48;nan;100742.31;5001106;28;20020;-86
2022/01/07 05:14:06;;;;;;;;;;;;;;;0.49;nan;100738.81;5017257;28;19952;-86
2022/01/07 05:16:31;;;;;;;;;;;;;;;0.45;nan;100729.47;5019229;28;19921;-86
2022/01/07 05:18:57;;;;;;;;;;;;;;;0.40;nan;100727.13;5002364;28;20435;-86
2022/01/07 05:21:23;;;;;;;;;;;;;;;0.45;nan;100725.09;5002819;28;20080;-86
2022/01/07 05:23:48;;;;;;;;;;;;;;;0.47;nan;100733.66;5003230;28;19925;-87
2022/01/07 05:26:13;;;;;;;;;;;;;;;0.54;nan;100729.81;5001084;28;19965;-86
2022/01/07 05:28:38;;;;;;;;;;;;;;;0.58;nan;100720.94;5005018;28;19921;-86
2022/01/07 05:31:04;;;;;;;;;;;;;;;0.59;nan;100720.00;5022565;28;19940;-86
2022/01/07 05:33:29;;;;;;;;;;;;;;;0.69;nan;100711.69;4988413;28;19928;-86
2022/01/07 05:35:55;;;;;;;;;;;;;;;0.66;nan;100711.88;4992860;28;20004;-86
2022/01/07 05:38:20;;;;;;;;;;;;;;;0.66;nan;100715.31;5023054;28;20176;-87
2022/01/07 05:40:45;;;;;;;;;;;;;;;0.65;nan;100710.22;5023592;28;20354;-88
2022/01/07 05:43:10;;;;;;;;;;;;;;;0.67;nan;100703.13;5022042;28;19932;-86
2022/01/07 05:45:35;;;;;;;;;;;;;;;0.65;nan;100705.00;5007521;28;19925;-85
2022/01/07 05:48:01;;;;;;;;;;;;;;;0.69;nan;100696.09;5005017;28;19917;-86
2022/01/07 05:50:27;;;;;;;;;;;;;;;0.75;nan;100693.97;5004165;28;19929;-85
2022/01/07 05:52:52;;;;;;;;;;;;;;;0.74;nan;100700.13;5008805;28;19917;-86
2022/01/07 05:55:17;;;;;;;;;;;;;;;0.67;nan;100688.38;4985898;28;19973;-87
2022/01/07 05:57:42;;;;;;;;;;;;;;;0.68;nan;100691.81;5023153;28;19922;-86
2022/01/07 06:00:09;;;;;;;;;;;;;;;0.79;nan;100685.09;5004554;28;19925;-87
2022/01/07 06:02:34;;;;;;;;;;;;;;;0.79;nan;100686.88;5004589;28;19980;-87
2022/01/07 06:04:59;;;;;;;;;;;;;;;0.78;nan;100687.78;5004560;28;19918;-87
2022/01/07 06:07:24;;;;;;;;;;;;;;;0.83;nan;100684.00;4999871;28;20012;-86
2022/01/07 06:09:50;;;;;;;;;;;;;;;0.86;nan;100685.59;5025586;28;20014;-86
2022/01/07 06:12:15;;;;;;;;;;;;;;;0.90;nan;100679.28;5035533;28;19925;-86
2022/01/07 06:14:40;;;;;;;;;;;;;;;0.91;nan;100680.97;5039371;28;19928;-85
2022/01/07 06:17:08;;;;;;;;;;;;;;;0.87;nan;100671.63;5037993;28;19917;-86
2022/01/07 06:19:33;;;;;;;;;;;;;;;0.82;nan;100671.91;5034205;28;19971;-87
2022/01/07 06:21:59;;;;;;;;;;;;;;;0.89;nan;100672.41;5036889;28;19921;-85
2022/01/07 06:24:24;;;;;;;;;;;;;;;0.89;nan;100666.34;5034800;28;19921;-87
2022/01/07 06:26:49;;;;;;;;;;;;;;;0.93;nan;100670.44;5034680;28;20398;-86
2022/01/07 06:29:14;;;;;;;;;;;;;;;0.98;nan;100678.88;5036035;28;19928;-86
2022/01/07 06:31:40;;;;;;;;;;;;;;;0.94;nan;100675.56;5037338;28;20349;-85
2022/01/07 06:34:05;;;;;;;;;;;;;;;0.90;nan;100666.25;5035985;28;19996;-87
2022/01/07 06:36:30;;;;;;;;;;;;;;;0.99;nan;100668.34;5037210;28;19926;-86
2022/01/07 06:38:55;;;;;;;;;;;;;;;0.98;nan;100666.69;5037616;28;20374;-86
2022/01/07 06:41:21;;;;;;;;;;;;;;;1.01;nan;100665.66;5038638;28;19921;-85
2022/01/07 06:43:46;;;;;;;;;;;;;;;0.99;nan;100663.13;5032811;28;19979;-85
2022/01/07 06:46:14;;;;;;;;;;;;;;;1.01;nan;100661.28;5042810;28;19928;-86
2022/01/07 06:48:41;;;;;;;;;;;;;;;1.01;nan;100666.50;5039806;28;19921;-87
2022/01/07 06:51:06;;;;;;;;;;;;;;;0.98;nan;100663.25;5033292;28;19921;-85
2022/01/07 06:53:32;;;;;;;;;;;;;;;0.89;nan;100663.75;5030370;28;19981;-87
2022/01/07 06:55:57;;;;;;;;;;;;;;;0.96;nan;100663.31;5041516;28;19928;-86
2022/01/07 06:58:23;;;;;;;;;;;;;;;0.98;nan;100665.84;5039763;28;19921;-87
2022/01/07 07:00:48;;;;;;;;;;;;;;;1.00;nan;100667.44;5036253;28;20305;-86
2022/01/07 07:03:16;;;;;;;;;;;;;;;0.98;nan;100668.44;5030400;28;19929;-86
2022/01/07 07:05:41;;;;;;;;;;;;;;;0.94;nan;100665.16;5036974;28;19967;-86
2022/01/07 07:08:06;;;;;;;;;;;;;;;0.97;nan;100672.78;5028524;28;19917;-87
2022/01/07 07:10:32;;;;;;;;;;;;;;;0.97;nan;100664.97;5043999;28;19917;-87
2022/01/07 07:12:57;;;;;;;;;;;;;;;0.96;nan;100663.31;5040824;28;19917;-86
2022/01/07 07:15:23;;;;;;;;;;;;;;;0.99;nan;100655.31;5041003;28;19927;-86
2022/01/07 07:17:51;;;;;;;;;;;;;;;1.09;nan;100654.81;5026870;28;19928;-85
2022/01/07 07:20:16;;;;;;;;;;;;;;;0.99;nan;100649.28;5055726;28;19917;-86
2022/01/07 07:22:41;;;;;;;;;;;;;;;1.07;nan;100660.09;5041883;28;20029;-86
2022/01/07 07:25:07;;;;;;;;;;;;;;;1.11;nan;100661.59;5036556;28;19929;-86
2022/01/07 07:27:36;;;;;;;;;;;;;;;1.09;nan;100654.81;5038162;28;19936;-86
2022/01/07 07:30:05;;;;;;;;;;;;;;;1.08;nan;100648.75;5042813;28;19932;-87
2022/01/07 07:32:31;;;;;;;;;;;;;;;1.16;nan;100653.53;5043565;28;19921;-86
2022/01/07 07:35:03;;;;;;;;;;;;;;;1.09;nan;100652.19;5031980;28;19933;-86
2022/01/07 07:37:28;;;;;;;;;;;;;;;1.18;nan;100651.69;5026931;28;19921;-86
2022/01/07 07:39:53;;;;;;;;;;;;;;;1.18;nan;100646.47;5033447;28;19989;-87
2022/01/07 07:42:19;;;;;;;;;;;;;;;1.23;nan;100641.81;5033850;28;19963;-85
2022/01/07 07:44:44;;;;;;;;;;;;;;;1.24;nan;100648.69;5033946;28;20271;-85
2022/01/07 07:47:09;;;;;;;;;;;;;;;1.27;nan;100644.16;5036342;28;19921;-88
2022/01/07 07:49:34;;;;;;;;;;;;;;;1.31;nan;100637.03;5037767;28;20287;-87
2022/01/07 07:52:00;;;;;;;;;;;;;;;1.32;nan;100643.91;5029793;28;20025;-87
2022/01/07 07:54:28;;;;;;;;;;;;;;;1.28;nan;100645.00;5018983;28;19957;-86
2022/01/07 07:56:55;;;;;;;;;;;;;;;1.28;nan;100647.59;5030193;28;19972;-86
2022/01/07 07:59:22;;;;;;;;;;;;;;;1.24;nan;100643.47;5028764;28;19969;-86
2022/01/07 08:01:47;;;;;;;;;;;;;;;1.24;nan;100646.94;5034287;28;20296;-87
2022/01/07 08:04:12;;;;;;;;;;;;;;;1.24;nan;100640.88;5032973;28;20012;-85
2022/01/07 08:06:38;;;;;;;;;;;;;;;1.22;nan;100647.97;5035191;28;19929;-86
2022/01/07 08:09:03;;;;;;;;;;;;;;;1.33;nan;100644.72;5034355;28;20054;-87
2022/01/07 08:11:32;;;;;;;;;;;;;;;1.27;nan;100645.94;5025259;28;20067;-86
2022/01/07 08:16:42;;;;;;;;;;;;;;;1.25;nan;100642.56;5023766;28;19947;-86
2022/01/07 08:19:07;;;;;;;;;;;;;;;1.23;nan;100644.44;5033203;28;20016;-86
2022/01/07 08:21:32;;;;;;;;;;;;;;;1.27;nan;100649.38;5033218;28;19971;-86
2022/01/07 08:23:59;;;;;;;;;;;;;;;1.26;nan;100652.91;5033386;28;19921;-86
2022/01/07 08:26:25;;;;;;;;;;;;;;;1.19;nan;100649.00;5030165;28;20016;-88
2022/01/07 08:28:55;;;;;;;;;;;;;;;1.05;nan;100648.94;5034448;28;19957;-86
2022/01/07 08:36:34;;;;;;;;;;;;;;;0.84;nan;100628.41;5033953;28;20294;-86
2022/01/07 08:39:00;;;;;;;;;;;;;;;0.78;nan;100630.50;5033096;28;19921;-86
2022/01/07 08:41:30;;;;;;;;;;;;;;;0.74;nan;100629.84;5033195;28;19971;-86
2022/01/07 08:43:55;;;;;;;;;;;;;;;0.62;nan;100626.19;5028971;28;20000;-86
2022/01/07 08:46:21;;;;;;;;;;;;;;;0.65;nan;100627.75;5017234;28;19968;-87
2022/01/07 08:48:46;;;;;;;;;;;;;;;0.63;nan;100624.41;5013267;28;20405;-86
2022/01/07 08:51:11;;;;;;;;;;;;;;;0.62;nan;100622.72;5022243;28;19925;-86
2022/01/07 08:53:37;;;;;;;;;;;;;;;0.55;nan;100614.44;5028245;28;20391;-87
2022/01/07 08:56:03;;;;;;;;;;;;;;;0.53;nan;100612.84;5019589;28;19923;-87
2022/01/07 08:58:30;;;;;;;;;;;;;;;0.55;nan;100618.78;5031395;28;20366;-86
2022/01/07 09:00:56;;;;;;;;;;;;;;;0.50;nan;100613.84;5031960;28;19953;-87
2022/01/07 09:03:21;;;;;;;;;;;;;;;0.51;nan;100618.13;5031069;28;20009;-86
2022/01/07 09:05:47;;;;;;;;;;;;;;;0.47;nan;100608.78;5023103;28;19917;-86
2022/01/07 09:08:12;;;;;;;;;;;;;;;0.54;nan;100615.34;5030591;28;19921;-85
2022/01/07 09:10:42;;;;;;;;;;;;;;;0.53;nan;100610.25;5037095;28;19917;-86
2022/01/07 09:13:08;;;;;;;;;;;;;;;0.57;nan;100609.97;5030436;28;19955;-87
2022/01/07 09:15:33;;;;;;;;;;;;;;;0.60;nan;100604.59;5027541;28;19921;-86
2022/01/07 09:17:59;;;;;;;;;;;;;;;0.50;nan;100600.84;5022200;28;19921;-88
2022/01/07 09:20:24;;;;;;;;;;;;;;;0.60;nan;100593.34;5022794;28;19964;-87
2022/01/07 09:22:50;;;;;;;;;;;;;;;0.65;nan;100590.50;5025009;28;20402;-87
2022/01/07 09:25:15;;;;;;;;;;;;;;;0.68;nan;100596.34;5035541;28;19924;-87
2022/01/07 09:27:41;;;;;;;;;;;;;;;0.71;nan;100585.75;5024573;28;20409;-86
2022/01/07 09:30:08;;;;;;;;;;;;;;;0.77;nan;100595.00;5027439;28;20159;-87
2022/01/07 09:32:34;;;;;;;;;;;;;;;0.78;nan;100594.06;5033612;28;20264;-86
2022/01/07 09:34:59;;;;;;;;;;;;;;;0.82;nan;100600.78;5021422;28;19927;-88
2022/01/07 09:37:24;;;;;;;;;;;;;;;0.93;nan;100592.34;5033507;28;19921;-86
2022/01/07 09:39:49;;;;;;;;;;;;;;;0.99;nan;100584.19;5033075;28;20338;-87
2022/01/07 09:42:15;;;;;;;;;;;;;;;0.95;nan;100588.72;5034342;28;19944;-87
2022/01/07 09:44:40;;;;;;;;;;;;;;;0.98;nan;100580.75;5025543;28;19964;-87
2022/01/07 09:47:07;;;;;;;;;;;;;;;1.01;nan;100585.78;5036690;28;19932;-87
2022/01/07 09:49:34;;;;;;;;;;;;;;;0.92;nan;100586.31;5034290;28;19972;-88
2022/01/07 09:52:00;;;;;;;;;;;;;;;0.98;nan;100588.56;5034436;28;19925;-88
2022/01/07 09:54:25;;;;;;;;;;;;;;;1.01;nan;100577.97;5033107;28;19929;-88
2022/01/07 09:56:51;;;;;;;;;;;;;;;1.05;nan;100573.44;5031124;28;20372;-86
2022/01/07 09:59:16;;;;;;;;;;;;;;;1.10;nan;100570.53;5025003;28;19936;-87
2022/01/07 10:02:04;;;;;;;;;;;;;;;1.04;nan;100567.34;5028423;28;19925;-86
2022/01/07 10:04:30;;;;;;;;;;;;;;;1.11;nan;100556.59;5030044;28;19921;-87
2022/01/07 10:07:12;;;;;;;;;;;;;;;1.26;nan;100560.88;5025220;28;19947;-87
2022/01/07 10:09:38;;;;;;;;;;;;;;;1.20;nan;100561.25;5014552;28;19968;-86
2022/01/07 10:12:04;;;;;;;;;;;;;;;1.17;nan;100559.69;5019531;28;19921;-87
2022/01/07 10:14:30;;;;;;;;;;;;;;;1.22;nan;100565.47;5030349;28;19921;-86
2022/01/07 10:16:58;;;;;;;;;;;;;;;1.31;nan;100571.91;5027923;28;19922;-86
2022/01/07 10:19:32;;;;;;;;;;;;;;;1.25;nan;100574.84;5019341;28;19925;-87
2022/01/07 10:22:02;;;;;;;;;;;;;;;1.33;nan;100564.78;5022516;28;19925;-86
2022/01/07 10:24:27;;;;;;;;;;;;;;;1.48;nan;100570.88;5029554;28;20175;-86
2022/01/07 10:27:07;;;;;;;;;;;;;;;1.44;nan;100570.22;5027428;28;20370;-87
2022/01/07 10:29:37;;;;;;;;;;;;;;;1.40;nan;100571.31;5036307;28;19972;-85
2022/01/07 10:32:40;;;;;;;;;;;;;;;1.49;nan;100575.97;5035598;28;19974;-86
2022/01/07 10:35:13;;;;;;;;;;;;;;;1.44;nan;100565.00;4994159;28;21732;-85
2022/01/07 10:37:52;;;;;;;;;;;;;;;1.43;nan;100560.72;4994514;28;19960;-85
2022/01/07 10:40:32;;;;;;;;;;;;;;;1.40;nan;100542.66;5011505;28;19921;-86
2022/01/07 10:43:12;;;;;;;;;;;;;;;1.45;nan;100534.56;5044688;28;19932;-87
2022/01/07 10:45:38;;;;;;;;;;;;;;;1.51;nan;100533.38;5036261;28;20475;-86
2022/01/07 10:48:06;;;;;;;;;;;;;;;1.55;nan;100529.63;5018609;28;19977;-87
2022/01/07 10:50:31;;;;;;;;;;;;;;;1.56;nan;100526.94;5032302;28;20287;-87
2022/01/07 10:53:13;;;;;;;;;;;;;;;1.57;nan;100527.78;5031439;28;19928;-87
2022/01/07 10:55:38;;;;;;;;;;;;;;;1.57;nan;100520.78;5035261;28;19921;-86
2022/01/07 10:58:04;;;;;;;;;;;;;;;1.59;nan;100524.13;5035700;28;19947;-86
2022/01/07 11:00:35;;;;;;;;;;;;;;;1.61;nan;100527.50;5038038;28;19917;-86
2022/01/07 11:03:01;;;;;;;;;;;;;;;1.63;nan;100519.59;5039455;28;19920;-86
2022/01/07 11:05:26;;;;;;;;;;;;;;;1.69;nan;100512.22;5038223;28;20306;-86
2022/01/07 11:07:54;;;;;;;;;;;;;;;1.63;nan;100516.97;5038699;28;20000;-88
2022/01/07 11:10:19;;;;;;;;;;;;;;;1.65;nan;100513.34;5035590;28;20301;-86
2022/01/07 11:12:44;;;;;;;;;;;;;;;1.66;nan;100517.63;5025917;28;20015;-86
2022/01/07 11:15:10;;;;;;;;;;;;;;;1.63;nan;100512.59;5031462;28;20008;-87
2022/01/07 11:17:38;;;;;;;;;;;;;;;1.65;nan;100502.91;5024991;28;19968;-87
2022/01/07 11:20:05;;;;;;;;;;;;;;;1.67;nan;100505.44;5034336;28;19948;-86
2022/01/07 11:22:31;;;;;;;;;;;;;;;1.62;nan;100503.13;5016611;28;19925;-88
2022/01/07 11:24:57;;;;;;;;;;;;;;;1.63;nan;100498.75;5019715;28;20379;-86
2022/01/07 11:27:26;;;;;;;;;;;;;;;1.61;nan;100498.81;5037002;28;19922;-88
2022/01/07 11:29:52;;;;;;;;;;;;;;;1.64;nan;100496.00;5020525;28;19928;-87
2022/01/07 11:32:26;;;;;;;;;;;;;;;1.69;nan;100493.13;5035930;28;19918;-88
2022/01/07 11:34:52;;;;;;;;;;;;;;;1.68;nan;100487.09;5036163;28;19957;-86
2022/01/07 11:37:37;;;;;;;;;;;;;;;1.70;nan;100494.81;5028077;28;19921;-87
2022/01/07 11:40:04;;;;;;;;;;;;;;;1.76;nan;100497.03;5031346;28;19933;-87
2022/01/07 11:42:43;;;;;;;;;;;;;;;1.66;nan;100491.56;5036980;28;19924;-87
2022/01/07 11:45:29;;;;;;;;;;;;;;;1.66;nan;100494.16;5028757;28;19921;-87
2022/01/07 11:48:03;;;;;;;;;;;;;;;1.76;nan;100481.38;5033937;28;19975;-87
2022/01/07 11:50:34;;;;;;;;;;;;;;;1.77;nan;100471.81;5040348;28;19921;-87
2022/01/07 11:53:06;;;;;;;;;;;;;;;1.81;nan;100468.06;5039130;28;20202;-86
2022/01/07 11:55:33;;;;;;;;;;;;;;;1.86;nan;100472.06;5038793;28;19967;-88
2022/01/07 11:58:03;;;;;;;;;;;;;;;1.86;nan;100473.81;5022087;28;19984;-87
2022/01/07 12:00:51;;;;;;;;;;;;;;;1.85;nan;100470.38;5030091;28;19917;-87
2022/01/07 12:03:35;;;;;;;;;;;;;;;1.83;nan;100474.84;5040539;28;19916;-87
2022/01/07 12:06:30;;;;;;;;;;;;;;;1.89;nan;100478.84;5040817;28;19921;-86
2022/01/07 12:08:59;;;;;;;;;;;;;;;1.85;nan;100472.16;5030944;28;19948;-85
2022/01/07 12:11:25;;;;;;;;;;;;;;;1.84;nan;100476.53;5022986;28;19928;-86
2022/01/07 12:13:51;;;;;;;;;;;;;;;1.83;nan;100463.59;5023756;28;19922;-86
2022/01/07 12:16:19;;;;;;;;;;;;;;;1.76;nan;100450.09;5021026;28;19921;-86
2022/01/07 12:18:45;;;;;;;;;;;;;;;1.83;nan;100455.75;5025950;28;19967;-86
2022/01/07 12:21:10;;;;;;;;;;;;;;;1.88;nan;100458.91;5030628;28;20000;-87
2022/01/07 12:23:37;;;;;;;;;;;;;;;1.88;nan;100454.56;5031583;28;20083;-87
2022/01/07 12:26:03;;;;;;;;;;;;;;;1.85;nan;100452.13;5021431;28;20006;-86
2022/01/07 12:28:34;;;;;;;;;;;;;;;1.91;nan;100449.13;5032465;28;19921;-87
2022/01/07 12:31:09;;;;;;;;;;;;;;;1.97;nan;100440.06;5032190;28;19971;-87
2022/01/07 12:33:35;;;;;;;;;;;;;;;1.97;nan;100457.50;5032159;28;20017;-87
2022/01/07 12:36:00;;;;;;;;;;;;;;;1.94;nan;100449.88;5020448;28;19972;-87
2022/01/07 12:38:25;;;;;;;;;;;;;;;1.92;nan;100444.75;5023790;28;20043;-86
2022/01/07 12:40:51;;;;;;;;;;;;;;;1.97;nan;100447.91;5031500;28;19941;-86
2022/01/07 12:43:19;;;;;;;;;;;;;;;1.86;nan;100453.81;5026688;28;19921;-86
2022/01/07 12:45:53;;;;;;;;;;;;;;;1.96;nan;100453.22;5015355;28;19918;-86
2022/01/07 12:48:29;;;;;;;;;;;;;;;2.00;nan;100445.13;5031490;28;20223;-86
2022/01/07 12:50:59;;;;;;;;;;;;;;;1.97;nan;100447.91;5040509;28;19921;-87
2022/01/07 12:53:24;;;;;;;;;;;;;;;2.01;nan;100438.13;5023714;28;19924;-87
2022/01/07 12:55:49;;;;;;;;;;;;;;;1.96;nan;100434.97;5023332;28;20342;-86
2022/01/07 12:58:25;;;;;;;;;;;;;;;2.01;nan;100428.53;5033370;28;20466;-87
2022/01/07 13:00:51;;;;;;;;;;;;;;;2.07;nan;100430.75;5039324;28;20293;-87
2022/01/07 13:03:16;;;;;;;;;;;;;;;1.99;nan;100419.13;5035805;28;19917;-87
2022/01/07 13:05:42;;;;;;;;;;;;;;;2.00;nan;100432.06;5031669;28;20032;-86
2022/01/07 13:08:09;;;;;;;;;;;;;;;2.07;nan;100430.75;5035597;28;19925;-86
2022/01/07 13:10:35;;;;;;;;;;;;;;;2.06;nan;100433.44;5034182;28;21122;-87
2022/01/07 13:13:00;;;;;;;;;;;;;;;2.01;nan;100435.50;5035808;28;20309;-86